createdAt,value
2023-05-24T00:00:00.000Z,18.42
2023-05-24T00:15:00.000Z,15.99
2023-05-24T00:30:00.000Z,15.51
2023-05-24T00:45:00.000Z,14.92
2023-05-24T01:00:00.000Z,14.48
2023-05-24T01:15:00.000Z,13.99
2023-05-24T01:30:00.000Z,14.38
2023-05-24T01:45:00.000Z,12.98
2023-05-24T02:00:00.000Z,13.16
2023-05-24T02:15:00.000Z,13.44
2023-05-24T02:30:00.000Z,13.12
2023-05-24T02:45:00.000Z,13.2
2023-05-24T03:00:00.000Z,13.92
2023-05-24T03:15:00.000Z,15.13
2023-05-24T03:30:00.000Z,14.78
2023-05-24T03:45:00.000Z,15.99
2023-05-24T04:00:00.000Z,16.71
2023-05-24T04:15:00.000Z,15.88
2023-05-24T04:30:00.000Z,16.68
2023-05-24T04:45:00.000Z,18.77
2023-05-24T05:00:00.000Z,17.54
2023-05-24T05:15:00.000Z,17.75
2023-05-24T05:30:00.000Z,19.42
2023-05-24T05:45:00.000Z,16.8
2023-05-24T06:00:00.000Z,17.28
2023-05-24T06:15:00.000Z,16.14
2023-05-24T06:30:00.000Z,15.8
2023-05-24T06:45:00.000Z,17.05
2023-05-24T07:00:00.000Z,17.13
2023-05-24T07:15:00.000Z,16.58
2023-05-24T07:30:00.000Z,17.15
2023-05-24T07:45:00.000Z,16.22
2023-05-24T08:00:00.000Z,17.19
2023-05-24T08:15:00.000Z,20.18
2023-05-24T08:30:00.000Z,14.04
2023-05-24T08:45:00.000Z,13.35
2023-05-24T09:00:00.000Z,13.55
2023-05-24T09:15:00.000Z,16.71
2023-05-24T09:30:00.000Z,17.02
2023-05-24T09:45:00.000Z,19
2023-05-24T10:00:00.000Z,19.75
2023-05-24T10:15:00.000Z,16.28
2023-05-24T10:30:00.000Z,15.31
2023-05-24T10:45:00.000Z,13.14
2023-05-24T11:00:00.000Z,13.07
2023-05-24T11:15:00.000Z,13.47
2023-05-24T11:30:00.000Z,14.53
2023-05-24T11:45:00.000Z,20.48
2023-05-24T12:00:00.000Z,18.45
2023-05-24T12:15:00.000Z,17.27
2023-05-24T12:30:00.000Z,23.81
2023-05-24T12:45:00.000Z,22.62
2023-05-24T13:00:00.000Z,21.86
2023-05-24T13:15:00.000Z,19.53
2023-05-24T13:30:00.000Z,21.61
2023-05-24T13:45:00.000Z,21.25
2023-05-24T14:00:00.000Z,25.18
2023-05-24T14:15:00.000Z,25.24
2023-05-24T14:30:00.000Z,25.53
2023-05-24T14:45:00.000Z,26.25
2023-05-24T15:00:00.000Z,26.31
2023-05-24T15:15:00.000Z,32.54
2023-05-24T15:30:00.000Z,28.85
2023-05-24T15:45:00.000Z,28.46
2023-05-24T16:00:00.000Z,30.59
2023-05-24T16:15:00.000Z,31.59
2023-05-24T16:30:00.000Z,31
2023-05-24T16:45:00.000Z,29.81
2023-05-24T17:00:00.000Z,29.76
2023-05-24T17:15:00.000Z,29.55
2023-05-24T17:30:00.000Z,30.65
2023-05-24T17:45:00.000Z,32.44
2023-05-24T18:00:00.000Z,30.81
2023-05-24T18:15:00.000Z,30.41
2023-05-24T18:30:00.000Z,33.04
2023-05-24T18:45:00.000Z,36.01
2023-05-24T19:00:00.000Z,35.75
2023-05-24T19:15:00.000Z,36.73
2023-05-24T19:30:00.000Z,35.34
2023-05-24T19:45:00.000Z,35.42
2023-05-24T20:00:00.000Z,37.94
2023-05-24T20:15:00.000Z,37.2
2023-05-24T20:30:00.000Z,36.16
2023-05-24T20:45:00.000Z,36.78
2023-05-24T21:00:00.000Z,36.94
2023-05-24T21:15:00.000Z,34.93
2023-05-24T21:30:00.000Z,33.62
2023-05-24T21:45:00.000Z,33.45
2023-05-24T22:00:00.000Z,33.95
2023-05-24T22:15:00.000Z,33.56
2023-05-24T22:30:00.000Z,33.8
2023-05-24T22:45:00.000Z,35.31
2023-05-24T23:00:00.000Z,34.07
2023-05-24T23:15:00.000Z,30.15
2023-05-24T23:30:00.000Z,31.48
2023-05-24T23:45:00.000Z,31.75
